首页
METAR-TAF:

METAR-TAF

机场 :

塔拉瓦环礁, 基里巴斯

邦里基國際機場

纬度: 01-21N, 经度: 172-55E, 海拔: 2米

当前天气观测

该预报发布于18分钟前的13:00 UTC
风速13节,风向
温度 28°C
湿度 89%
气压 1008 hPa
能见度10公里或以上
少量云层高于2000英尺

METAR: NGTA 171300Z 10013KT 9999 FEW020 FEW 300 28/26 Q1008

时间: 03:18 (13:18 UTC)

预报

该预报发布于1小时和57分钟前的11:21 UTC
预报有效从17日的 12点(UTC)到 18日的 12点(UTC)
风速18节,风向
能见度10公里或以上
散云层高于1900英尺
散云层高于10000英尺

TAF: NGTA 171121Z 1712/1812 10018KT 9999 SCT019 SCT100

超过4000个机场的气象观测和天气预报(METAR&TAF报告)。

可查询的气象台以黄色和红色小点在地图上表示。

将鼠标移到小点上方,可查看气象台名称。

然后点击查看天气观测和预报。

如需切换地图:点击带黑十字的绿色按钮放大地图;点击带横线的绿色按钮缩小地图;或者点击绿色箭头查看邻近地区的地图。


METAR-TAF: